sensor_id;sensor_type;location;lat;lon;timestamp;P1;durP1;ratioP1;P2;durP2;ratioP2
31764;SDS011;18338;53.240;8.798;2023-02-15T00:00:03;113.80;;;34.17;;
31764;SDS011;18338;53.240;8.798;2023-02-15T00:02:31;143.33;;;29.63;;
31764;SDS011;18338;53.240;8.798;2023-02-15T00:04:58;110.17;;;31.43;;
31764;SDS011;18338;53.240;8.798;2023-02-15T00:07:24;249.70;;;34.63;;
31764;SDS011;18338;53.240;8.798;2023-02-15T00:09:51;396.00;;;48.60;;
31764;SDS011;18338;53.240;8.798;2023-02-15T00:12:18;143.37;;;33.00;;
31764;SDS011;18338;53.240;8.798;2023-02-15T00:14:44;86.50;;;31.23;;
31764;SDS011;18338;53.240;8.798;2023-02-15T00:17:11;262.97;;;38.87;;
31764;SDS011;18338;53.240;8.798;2023-02-15T00:19:38;106.57;;;32.90;;
31764;SDS011;18338;53.240;8.798;2023-02-15T00:22:06;149.83;;;32.57;;
31764;SDS011;18338;53.240;8.798;2023-02-15T00:24:32;238.50;;;36.97;;
31764;SDS011;18338;53.240;8.798;2023-02-15T00:26:59;101.57;;;27.27;;
31764;SDS011;18338;53.240;8.798;2023-02-15T00:29:26;79.67;;;26.90;;
31764;SDS011;18338;53.240;8.798;2023-02-15T00:31:52;109.23;;;32.87;;
31764;SDS011;18338;53.240;8.798;2023-02-15T00:34:23;241.30;;;38.47;;
31764;SDS011;18338;53.240;8.798;2023-02-15T00:36:52;87.97;;;28.77;;
31764;SDS011;18338;53.240;8.798;2023-02-15T00:39:19;137.27;;;32.97;;
31764;SDS011;18338;53.240;8.798;2023-02-15T00:41:46;117.80;;;34.30;;
31764;SDS011;18338;53.240;8.798;2023-02-15T00:44:13;262.23;;;38.23;;
31764;SDS011;18338;53.240;8.798;2023-02-15T00:46:41;359.83;;;42.80;;
31764;SDS011;18338;53.240;8.798;2023-02-15T00:49:07;247.67;;;35.43;;
31764;SDS011;18338;53.240;8.798;2023-02-15T00:51:34;422.03;;;42.60;;
31764;SDS011;18338;53.240;8.798;2023-02-15T00:54:01;222.87;;;39.30;;
31764;SDS011;18338;53.240;8.798;2023-02-15T00:56:27;298.87;;;42.10;;
31764;SDS011;18338;53.240;8.798;2023-02-15T00:58:54;250.00;;;38.87;;
31764;SDS011;18338;53.240;8.798;2023-02-15T01:01:21;386.20;;;41.27;;
31764;SDS011;18338;53.240;8.798;2023-02-15T01:03:49;410.60;;;49.10;;
31764;SDS011;18338;53.240;8.798;2023-02-15T01:06:16;189.93;;;33.20;;
31764;SDS011;18338;53.240;8.798;2023-02-15T01:08:43;124.40;;;29.90;;
31764;SDS011;18338;53.240;8.798;2023-02-15T01:11:13;148.70;;;28.47;;
31764;SDS011;18338;53.240;8.798;2023-02-15T01:13:51;413.10;;;45.40;;
31764;SDS011;18338;53.240;8.798;2023-02-15T01:16:20;213.17;;;32.53;;
31764;SDS011;18338;53.240;8.798;2023-02-15T01:18:47;129.57;;;27.87;;
31764;SDS011;18338;53.240;8.798;2023-02-15T01:21:15;260.37;;;37.10;;
31764;SDS011;18338;53.240;8.798;2023-02-15T01:23:44;160.20;;;27.17;;
31764;SDS011;18338;53.240;8.798;2023-02-15T01:26:11;167.73;;;29.07;;
31764;SDS011;18338;53.240;8.798;2023-02-15T01:28:39;174.27;;;28.80;;
31764;SDS011;18338;53.240;8.798;2023-02-15T01:31:11;206.07;;;32.37;;
31764;SDS011;18338;53.240;8.798;2023-02-15T01:33:39;61.00;;;22.37;;
31764;SDS011;18338;53.240;8.798;2023-02-15T01:36:06;95.30;;;22.93;;
31764;SDS011;18338;53.240;8.798;2023-02-15T01:38:34;84.07;;;24.97;;
31764;SDS011;18338;53.240;8.798;2023-02-15T01:41:01;165.00;;;30.30;;
31764;SDS011;18338;53.240;8.798;2023-02-15T01:43:47;228.33;;;33.10;;
31764;SDS011;18338;53.240;8.798;2023-02-15T01:46:26;122.67;;;28.00;;
31764;SDS011;18338;53.240;8.798;2023-02-15T01:49:05;209.80;;;35.13;;
31764;SDS011;18338;53.240;8.798;2023-02-15T01:51:38;276.53;;;39.80;;
31764;SDS011;18338;53.240;8.798;2023-02-15T01:54:18;195.63;;;37.90;;
31764;SDS011;18338;53.240;8.798;2023-02-15T01:56:56;214.43;;;37.50;;
31764;SDS011;18338;53.240;8.798;2023-02-15T01:59:28;150.70;;;33.13;;
31764;SDS011;18338;53.240;8.798;2023-02-15T02:01:58;171.50;;;34.27;;
31764;SDS011;18338;53.240;8.798;2023-02-15T02:07:04;96.80;;;28.30;;
31764;SDS011;18338;53.240;8.798;2023-02-15T02:09:34;122.13;;;29.63;;
31764;SDS011;18338;53.240;8.798;2023-02-15T02:12:01;85.60;;;28.40;;
31764;SDS011;18338;53.240;8.798;2023-02-15T02:14:28;57.40;;;25.50;;
31764;SDS011;18338;53.240;8.798;2023-02-15T02:17:02;196.77;;;34.47;;
31764;SDS011;18338;53.240;8.798;2023-02-15T02:42:25;75.20;;;26.37;;
31764;SDS011;18338;53.240;8.798;2023-02-15T02:45:03;141.80;;;33.33;;
31764;SDS011;18338;53.240;8.798;2023-02-15T02:47:40;143.43;;;32.47;;
31764;SDS011;18338;53.240;8.798;2023-02-15T02:50:14;91.83;;;28.67;;
31764;SDS011;18338;53.240;8.798;2023-02-15T02:52:48;75.27;;;28.17;;
31764;SDS011;18338;53.240;8.798;2023-02-15T02:55:19;109.90;;;30.97;;
31764;SDS011;18338;53.240;8.798;2023-02-15T03:00:23;133.90;;;32.27;;
31764;SDS011;18338;53.240;8.798;2023-02-15T03:02:57;73.40;;;27.93;;
31764;SDS011;18338;53.240;8.798;2023-02-15T03:05:31;122.13;;;33.00;;
31764;SDS011;18338;53.240;8.798;2023-02-15T03:08:01;87.80;;;28.90;;
31764;SDS011;18338;53.240;8.798;2023-02-15T03:10:36;102.30;;;30.13;;
31764;SDS011;18338;53.240;8.798;2023-02-15T03:13:05;140.57;;;32.93;;
31764;SDS011;18338;53.240;8.798;2023-02-15T03:15:34;137.30;;;32.73;;
31764;SDS011;18338;53.240;8.798;2023-02-15T03:18:26;129.50;;;31.67;;
31764;SDS011;18338;53.240;8.798;2023-02-15T03:20:57;80.87;;;27.90;;
31764;SDS011;18338;53.240;8.798;2023-02-15T03:23:27;97.17;;;27.57;;
31764;SDS011;18338;53.240;8.798;2023-02-15T03:25:59;112.90;;;29.93;;
31764;SDS011;18338;53.240;8.798;2023-02-15T03:28:29;83.80;;;28.33;;
31764;SDS011;18338;53.240;8.798;2023-02-15T03:31:02;80.10;;;27.97;;
31764;SDS011;18338;53.240;8.798;2023-02-15T03:33:32;68.63;;;27.03;;
31764;SDS011;18338;53.240;8.798;2023-02-15T03:36:11;113.07;;;29.90;;
31764;SDS011;18338;53.240;8.798;2023-02-15T03:41:45;94.50;;;28.10;;
31764;SDS011;18338;53.240;8.798;2023-02-15T03:45:01;98.67;;;27.33;;
31764;SDS011;18338;53.240;8.798;2023-02-15T03:47:27;122.93;;;30.00;;
31764;SDS011;18338;53.240;8.798;2023-02-15T03:49:59;118.63;;;28.90;;
31764;SDS011;18338;53.240;8.798;2023-02-15T03:52:29;120.97;;;29.23;;
31764;SDS011;18338;53.240;8.798;2023-02-15T03:54:58;138.00;;;28.83;;
31764;SDS011;18338;53.240;8.798;2023-02-15T03:57:26;126.87;;;30.87;;
31764;SDS011;18338;53.240;8.798;2023-02-15T04:00:19;143.07;;;31.87;;
31764;SDS011;18338;53.240;8.798;2023-02-15T04:05:55;118.87;;;28.50;;
31764;SDS011;18338;53.240;8.798;2023-02-15T04:08:22;88.57;;;28.20;;
31764;SDS011;18338;53.240;8.798;2023-02-15T04:11:08;90.43;;;28.73;;
31764;SDS011;18338;53.240;8.798;2023-02-15T04:13:35;133.50;;;31.23;;
31764;SDS011;18338;53.240;8.798;2023-02-15T04:16:02;85.50;;;27.73;;
31764;SDS011;18338;53.240;8.798;2023-02-15T04:18:37;76.90;;;27.87;;
31764;SDS011;18338;53.240;8.798;2023-02-15T04:21:25;80.57;;;27.07;;
31764;SDS011;18338;53.240;8.798;2023-02-15T04:24:11;86.60;;;29.80;;
31764;SDS011;18338;53.240;8.798;2023-02-15T04:26:57;104.00;;;29.73;;
31764;SDS011;18338;53.240;8.798;2023-02-15T04:29:25;92.03;;;31.23;;
31764;SDS011;18338;53.240;8.798;2023-02-15T04:31:53;95.33;;;28.00;;
31764;SDS011;18338;53.240;8.798;2023-02-15T04:34:21;102.77;;;31.07;;
31764;SDS011;18338;53.240;8.798;2023-02-15T04:36:48;85.07;;;29.27;;
31764;SDS011;18338;53.240;8.798;2023-02-15T04:39:17;122.03;;;31.10;;
31764;SDS011;18338;53.240;8.798;2023-02-15T04:41:44;118.50;;;33.57;;
31764;SDS011;18338;53.240;8.798;2023-02-15T04:44:11;103.13;;;29.17;;
31764;SDS011;18338;53.240;8.798;2023-02-15T04:46:38;190.30;;;34.43;;
31764;SDS011;18338;53.240;8.798;2023-02-15T04:49:04;163.13;;;34.87;;
31764;SDS011;18338;53.240;8.798;2023-02-15T04:51:31;144.43;;;32.27;;
31764;SDS011;18338;53.240;8.798;2023-02-15T04:53:58;153.60;;;34.60;;
31764;SDS011;18338;53.240;8.798;2023-02-15T04:56:25;165.23;;;34.27;;
31764;SDS011;18338;53.240;8.798;2023-02-15T04:58:52;144.67;;;32.63;;
31764;SDS011;18338;53.240;8.798;2023-02-15T05:01:18;117.13;;;29.97;;
31764;SDS011;18338;53.240;8.798;2023-02-15T05:03:45;155.90;;;32.93;;
31764;SDS011;18338;53.240;8.798;2023-02-15T05:06:12;114.10;;;26.37;;
31764;SDS011;18338;53.240;8.798;2023-02-15T05:08:39;149.00;;;31.30;;
31764;SDS011;18338;53.240;8.798;2023-02-15T05:11:05;133.77;;;30.43;;
31764;SDS011;18338;53.240;8.798;2023-02-15T05:13:32;141.87;;;31.23;;
31764;SDS011;18338;53.240;8.798;2023-02-15T05:15:59;138.70;;;31.10;;
31764;SDS011;18338;53.240;8.798;2023-02-15T05:18:26;143.40;;;30.73;;
31764;SDS011;18338;53.240;8.798;2023-02-15T05:20:53;92.47;;;28.07;;
31764;SDS011;18338;53.240;8.798;2023-02-15T05:23:20;98.57;;;27.07;;
31764;SDS011;18338;53.240;8.798;2023-02-15T05:25:49;129.30;;;30.03;;
31764;SDS011;18338;53.240;8.798;2023-02-15T05:28:36;101.80;;;28.50;;
31764;SDS011;18338;53.240;8.798;2023-02-15T05:31:13;84.57;;;28.00;;
31764;SDS011;18338;53.240;8.798;2023-02-15T05:33:43;93.27;;;28.33;;
31764;SDS011;18338;53.240;8.798;2023-02-15T05:36:11;67.33;;;25.43;;
31764;SDS011;18338;53.240;8.798;2023-02-15T05:38:38;102.30;;;28.10;;
31764;SDS011;18338;53.240;8.798;2023-02-15T05:41:05;104.77;;;28.50;;
31764;SDS011;18338;53.240;8.798;2023-02-15T05:43:33;82.30;;;26.17;;
31764;SDS011;18338;53.240;8.798;2023-02-15T05:46:00;94.50;;;28.07;;
31764;SDS011;18338;53.240;8.798;2023-02-15T05:48:27;148.43;;;30.40;;
31764;SDS011;18338;53.240;8.798;2023-02-15T05:50:58;129.10;;;33.73;;
31764;SDS011;18338;53.240;8.798;2023-02-15T05:53:26;152.23;;;30.73;;
31764;SDS011;18338;53.240;8.798;2023-02-15T05:55:54;102.57;;;28.33;;
31764;SDS011;18338;53.240;8.798;2023-02-15T05:58:26;140.20;;;29.83;;
31764;SDS011;18338;53.240;8.798;2023-02-15T06:00:53;126.27;;;28.07;;
31764;SDS011;18338;53.240;8.798;2023-02-15T06:03:21;127.60;;;27.87;;
31764;SDS011;18338;53.240;8.798;2023-02-15T06:05:49;70.10;;;22.90;;
31764;SDS011;18338;53.240;8.798;2023-02-15T06:08:15;121.83;;;29.17;;
31764;SDS011;18338;53.240;8.798;2023-02-15T06:10:42;80.00;;;25.00;;
31764;SDS011;18338;53.240;8.798;2023-02-15T06:13:09;172.17;;;33.27;;
31764;SDS011;18338;53.240;8.798;2023-02-15T06:15:35;153.33;;;31.03;;
31764;SDS011;18338;53.240;8.798;2023-02-15T06:18:02;113.97;;;27.80;;
31764;SDS011;18338;53.240;8.798;2023-02-15T06:20:29;90.93;;;26.77;;
31764;SDS011;18338;53.240;8.798;2023-02-15T06:22:56;173.43;;;33.93;;
31764;SDS011;18338;53.240;8.798;2023-02-15T06:25:23;109.63;;;27.67;;
31764;SDS011;18338;53.240;8.798;2023-02-15T06:27:51;113.63;;;28.70;;
31764;SDS011;18338;53.240;8.798;2023-02-15T06:30:17;124.53;;;28.23;;
31764;SDS011;18338;53.240;8.798;2023-02-15T06:32:44;84.10;;;25.30;;
31764;SDS011;18338;53.240;8.798;2023-02-15T06:35:19;108.03;;;26.87;;
31764;SDS011;18338;53.240;8.798;2023-02-15T06:37:53;104.57;;;26.93;;
31764;SDS011;18338;53.240;8.798;2023-02-15T06:40:26;134.50;;;30.73;;
31764;SDS011;18338;53.240;8.798;2023-02-15T06:45:51;118.30;;;27.23;;
31764;SDS011;18338;53.240;8.798;2023-02-15T06:48:18;97.70;;;26.63;;
31764;SDS011;18338;53.240;8.798;2023-02-15T06:50:45;94.80;;;26.87;;
31764;SDS011;18338;53.240;8.798;2023-02-15T06:53:11;144.23;;;29.93;;
31764;SDS011;18338;53.240;8.798;2023-02-15T06:55:48;137.17;;;28.03;;
31764;SDS011;18338;53.240;8.798;2023-02-15T06:58:15;125.93;;;28.70;;
31764;SDS011;18338;53.240;8.798;2023-02-15T07:00:41;150.77;;;30.90;;
31764;SDS011;18338;53.240;8.798;2023-02-15T07:03:08;104.07;;;28.60;;
31764;SDS011;18338;53.240;8.798;2023-02-15T07:05:41;108.97;;;28.50;;
31764;SDS011;18338;53.240;8.798;2023-02-15T07:08:20;123.27;;;28.47;;
31764;SDS011;18338;53.240;8.798;2023-02-15T07:10:50;104.53;;;26.03;;
31764;SDS011;18338;53.240;8.798;2023-02-15T07:13:17;112.47;;;26.10;;
31764;SDS011;18338;53.240;8.798;2023-02-15T07:15:49;119.07;;;27.73;;
31764;SDS011;18338;53.240;8.798;2023-02-15T07:18:16;90.83;;;23.80;;
31764;SDS011;18338;53.240;8.798;2023-02-15T07:21:00;91.87;;;24.97;;
31764;SDS011;18338;53.240;8.798;2023-02-15T07:23:34;106.70;;;25.60;;
31764;SDS011;18338;53.240;8.798;2023-02-15T07:26:10;112.87;;;26.93;;
31764;SDS011;18338;53.240;8.798;2023-02-15T07:28:39;73.70;;;24.97;;
31764;SDS011;18338;53.240;8.798;2023-02-15T07:31:06;59.70;;;23.23;;
31764;SDS011;18338;53.240;8.798;2023-02-15T07:36:36;118.27;;;28.43;;
31764;SDS011;18338;53.240;8.798;2023-02-15T07:39:25;125.47;;;27.60;;
31764;SDS011;18338;53.240;8.798;2023-02-15T07:42:00;163.67;;;28.37;;
31764;SDS011;18338;53.240;8.798;2023-02-15T07:44:27;118.13;;;26.53;;
31764;SDS011;18338;53.240;8.798;2023-02-15T07:46:58;88.23;;;26.10;;
31764;SDS011;18338;53.240;8.798;2023-02-15T07:49:35;102.07;;;26.70;;
31764;SDS011;18338;53.240;8.798;2023-02-15T07:52:02;132.67;;;27.60;;
31764;SDS011;18338;53.240;8.798;2023-02-15T07:54:29;133.47;;;28.50;;
31764;SDS011;18338;53.240;8.798;2023-02-15T07:56:55;99.10;;;26.73;;
31764;SDS011;18338;53.240;8.798;2023-02-15T07:59:22;98.40;;;28.77;;
31764;SDS011;18338;53.240;8.798;2023-02-15T08:01:50;102.57;;;28.77;;
31764;SDS011;18338;53.240;8.798;2023-02-15T08:04:18;101.57;;;27.13;;
31764;SDS011;18338;53.240;8.798;2023-02-15T08:06:45;140.77;;;29.07;;
31764;SDS011;18338;53.240;8.798;2023-02-15T08:09:12;102.87;;;25.40;;
31764;SDS011;18338;53.240;8.798;2023-02-15T08:11:39;132.93;;;28.83;;
31764;SDS011;18338;53.240;8.798;2023-02-15T08:14:08;95.10;;;28.43;;
31764;SDS011;18338;53.240;8.798;2023-02-15T08:21:54;104.40;;;27.57;;
31764;SDS011;18338;53.240;8.798;2023-02-15T08:24:24;71.17;;;26.33;;
31764;SDS011;18338;53.240;8.798;2023-02-15T08:26:52;106.07;;;29.00;;
31764;SDS011;18338;53.240;8.798;2023-02-15T08:29:20;88.90;;;25.40;;
31764;SDS011;18338;53.240;8.798;2023-02-15T08:31:49;88.27;;;24.30;;
31764;SDS011;18338;53.240;8.798;2023-02-15T08:34:19;60.33;;;24.20;;
31764;SDS011;18338;53.240;8.798;2023-02-15T08:36:47;83.73;;;25.33;;
31764;SDS011;18338;53.240;8.798;2023-02-15T08:39:14;46.67;;;22.20;;
31764;SDS011;18338;53.240;8.798;2023-02-15T08:41:42;56.97;;;23.03;;
31764;SDS011;18338;53.240;8.798;2023-02-15T08:44:10;52.37;;;22.13;;
31764;SDS011;18338;53.240;8.798;2023-02-15T08:46:38;47.73;;;21.90;;
31764;SDS011;18338;53.240;8.798;2023-02-15T08:49:08;38.13;;;20.53;;
31764;SDS011;18338;53.240;8.798;2023-02-15T08:51:37;42.27;;;20.37;;
31764;SDS011;18338;53.240;8.798;2023-02-15T08:54:06;38.93;;;20.53;;
31764;SDS011;18338;53.240;8.798;2023-02-15T08:56:39;38.10;;;19.27;;
31764;SDS011;18338;53.240;8.798;2023-02-15T08:59:11;36.37;;;19.37;;
31764;SDS011;18338;53.240;8.798;2023-02-15T09:01:40;49.27;;;23.90;;
31764;SDS011;18338;53.240;8.798;2023-02-15T09:04:07;45.60;;;20.20;;
31764;SDS011;18338;53.240;8.798;2023-02-15T09:06:39;31.73;;;18.13;;
31764;SDS011;18338;53.240;8.798;2023-02-15T09:09:07;27.13;;;18.07;;
31764;SDS011;18338;53.240;8.798;2023-02-15T09:11:36;32.53;;;18.27;;
31764;SDS011;18338;53.240;8.798;2023-02-15T09:14:08;28.83;;;16.90;;
31764;SDS011;18338;53.240;8.798;2023-02-15T09:16:42;43.67;;;16.03;;
31764;SDS011;18338;53.240;8.798;2023-02-15T09:19:12;43.40;;;16.40;;
31764;SDS011;18338;53.240;8.798;2023-02-15T09:21:39;55.07;;;15.10;;
31764;SDS011;18338;53.240;8.798;2023-02-15T09:24:07;37.73;;;13.47;;
31764;SDS011;18338;53.240;8.798;2023-02-15T09:26:37;32.87;;;13.13;;
31764;SDS011;18338;53.240;8.798;2023-02-15T09:29:07;22.93;;;10.80;;
31764;SDS011;18338;53.240;8.798;2023-02-15T09:31:42;14.80;;;11.13;;
31764;SDS011;18338;53.240;8.798;2023-02-15T09:34:12;17.20;;;10.30;;
31764;SDS011;18338;53.240;8.798;2023-02-15T09:36:40;18.27;;;9.73;;
31764;SDS011;18338;53.240;8.798;2023-02-15T09:39:11;16.77;;;9.37;;
31764;SDS011;18338;53.240;8.798;2023-02-15T09:44:25;10.88;;;8.65;;
31764;SDS011;18338;53.240;8.798;2023-02-15T09:50:10;13.37;;;9.43;;
31764;SDS011;18338;53.240;8.798;2023-02-15T09:57:58;13.35;;;9.32;;
31764;SDS011;18338;53.240;8.798;2023-02-15T10:00:38;11.50;;;8.93;;
31764;SDS011;18338;53.240;8.798;2023-02-15T10:03:33;13.30;;;9.07;;
31764;SDS011;18338;53.240;8.798;2023-02-15T10:06:17;10.82;;;9.55;;
31764;SDS011;18338;53.240;8.798;2023-02-15T10:12:06;10.88;;;8.30;;
31764;SDS011;18338;53.240;8.798;2023-02-15T10:20:42;9.60;;;7.97;;
31764;SDS011;18338;53.240;8.798;2023-02-15T10:26:18;14.88;;;11.18;;
31764;SDS011;18338;53.240;8.798;2023-02-15T10:39:50;10.23;;;9.23;;
31764;SDS011;18338;53.240;8.798;2023-02-15T10:47:41;10.18;;;9.18;;
31764;SDS011;18338;53.240;8.798;2023-02-15T11:04:48;10.85;;;9.82;;
31764;SDS011;18338;53.240;8.798;2023-02-15T11:07:41;15.00;;;11.52;;
31764;SDS011;18338;53.240;8.798;2023-02-15T11:12:52;12.20;;;10.90;;
31764;SDS011;18338;53.240;8.798;2023-02-15T11:18:19;12.77;;;11.43;;
31764;SDS011;18338;53.240;8.798;2023-02-15T11:21:11;12.20;;;10.70;;
31764;SDS011;18338;53.240;8.798;2023-02-15T11:23:43;37.67;;;33.90;;
31764;SDS011;18338;53.240;8.798;2023-02-15T11:26:13;14.07;;;12.68;;
31764;SDS011;18338;53.240;8.798;2023-02-15T11:29:07;14.30;;;12.82;;
31764;SDS011;18338;53.240;8.798;2023-02-15T11:34:21;12.52;;;11.23;;
31764;SDS011;18338;53.240;8.798;2023-02-15T11:36:54;14.77;;;11.98;;
31764;SDS011;18338;53.240;8.798;2023-02-15T11:39:24;13.55;;;12.15;;
31764;SDS011;18338;53.240;8.798;2023-02-15T11:47:48;17.08;;;13.73;;
31764;SDS011;18338;53.240;8.798;2023-02-15T11:50:16;15.80;;;13.93;;
31764;SDS011;18338;53.240;8.798;2023-02-15T11:52:52;22.13;;;20.13;;
31764;SDS011;18338;53.240;8.798;2023-02-15T11:55:23;17.95;;;13.23;;
31764;SDS011;18338;53.240;8.798;2023-02-15T11:57:54;15.88;;;13.30;;
31764;SDS011;18338;53.240;8.798;2023-02-15T12:00:35;16.02;;;13.98;;
31764;SDS011;18338;53.240;8.798;2023-02-15T12:03:11;17.60;;;14.40;;
31764;SDS011;18338;53.240;8.798;2023-02-15T12:05:48;15.13;;;13.52;;
31764;SDS011;18338;53.240;8.798;2023-02-15T12:08:20;19.85;;;15.55;;
31764;SDS011;18338;53.240;8.798;2023-02-15T12:11:07;16.08;;;14.35;;
31764;SDS011;18338;53.240;8.798;2023-02-15T12:13:55;18.80;;;15.55;;
31764;SDS011;18338;53.240;8.798;2023-02-15T12:16:24;18.38;;;15.55;;
31764;SDS011;18338;53.240;8.798;2023-02-15T12:18:55;15.95;;;14.25;;
31764;SDS011;18338;53.240;8.798;2023-02-15T12:21:25;21.90;;;15.73;;
31764;SDS011;18338;53.240;8.798;2023-02-15T12:24:20;17.35;;;15.55;;
31764;SDS011;18338;53.240;8.798;2023-02-15T12:27:36;16.83;;;14.93;;
31764;SDS011;18338;53.240;8.798;2023-02-15T12:29:52;18.58;;;15.82;;
31764;SDS011;18338;53.240;8.798;2023-02-15T12:32:24;18.55;;;15.68;;
31764;SDS011;18338;53.240;8.798;2023-02-15T12:34:55;19.30;;;16.20;;
31764;SDS011;18338;53.240;8.798;2023-02-15T12:37:28;20.88;;;16.92;;
31764;SDS011;18338;53.240;8.798;2023-02-15T12:39:59;20.05;;;17.35;;
31764;SDS011;18338;53.240;8.798;2023-02-15T12:42:27;18.30;;;16.30;;
31764;SDS011;18338;53.240;8.798;2023-02-15T12:45:27;24.10;;;17.90;;
31764;SDS011;18338;53.240;8.798;2023-02-15T12:50:40;52.10;;;43.22;;
31764;SDS011;18338;53.240;8.798;2023-02-15T12:55:59;19.70;;;17.50;;
31764;SDS011;18338;53.240;8.798;2023-02-15T12:58:28;21.55;;;17.80;;
31764;SDS011;18338;53.240;8.798;2023-02-15T13:03:39;19.88;;;17.55;;
31764;SDS011;18338;53.240;8.798;2023-02-15T13:06:20;20.75;;;18.55;;
31764;SDS011;18338;53.240;8.798;2023-02-15T13:08:50;24.45;;;18.55;;
31764;SDS011;18338;53.240;8.798;2023-02-15T13:11:21;21.20;;;18.90;;
31764;SDS011;18338;53.240;8.798;2023-02-15T13:13:57;20.25;;;18.08;;
31764;SDS011;18338;53.240;8.798;2023-02-15T13:16:30;22.65;;;18.95;;
31764;SDS011;18338;53.240;8.798;2023-02-15T13:19:14;19.60;;;17.10;;
31764;SDS011;18338;53.240;8.798;2023-02-15T13:21:47;20.52;;;18.33;;
31764;SDS011;18338;53.240;8.798;2023-02-15T13:26:50;19.95;;;17.75;;
31764;SDS011;18338;53.240;8.798;2023-02-15T13:29:33;21.27;;;19.00;;
31764;SDS011;18338;53.240;8.798;2023-02-15T13:32:12;21.92;;;19.23;;
31764;SDS011;18338;53.240;8.798;2023-02-15T13:34:52;21.83;;;19.52;;
31764;SDS011;18338;53.240;8.798;2023-02-15T13:37:28;20.45;;;18.13;;
31764;SDS011;18338;53.240;8.798;2023-02-15T13:48:27;25.05;;;19.73;;
31764;SDS011;18338;53.240;8.798;2023-02-15T13:51:19;25.60;;;21.90;;
31764;SDS011;18338;53.240;8.798;2023-02-15T13:59:40;27.20;;;21.10;;
31764;SDS011;18338;53.240;8.798;2023-02-15T14:02:36;26.17;;;20.08;;
31764;SDS011;18338;53.240;8.798;2023-02-15T14:05:41;24.40;;;20.17;;
31764;SDS011;18338;53.240;8.798;2023-02-15T14:12:40;23.27;;;18.63;;
31764;SDS011;18338;53.240;8.798;2023-02-15T14:18:16;23.25;;;18.85;;
31764;SDS011;18338;53.240;8.798;2023-02-15T14:21:13;22.77;;;19.10;;
31764;SDS011;18338;53.240;8.798;2023-02-15T14:23:52;24.20;;;19.33;;
31764;SDS011;18338;53.240;8.798;2023-02-15T14:29:41;23.05;;;20.23;;
31764;SDS011;18338;53.240;8.798;2023-02-15T14:32:35;23.20;;;19.98;;
31764;SDS011;18338;53.240;8.798;2023-02-15T14:35:13;27.60;;;19.92;;
31764;SDS011;18338;53.240;8.798;2023-02-15T14:40:52;24.25;;;19.92;;
31764;SDS011;18338;53.240;8.798;2023-02-15T14:43:42;25.17;;;20.10;;
31764;SDS011;18338;53.240;8.798;2023-02-15T14:49:33;27.70;;;22.05;;
31764;SDS011;18338;53.240;8.798;2023-02-15T14:52:07;30.73;;;23.73;;
31764;SDS011;18338;53.240;8.798;2023-02-15T15:07:28;28.88;;;21.58;;
31764;SDS011;18338;53.240;8.798;2023-02-15T15:10:06;30.90;;;23.58;;
31764;SDS011;18338;53.240;8.798;2023-02-15T15:12:54;30.67;;;23.08;;
31764;SDS011;18338;53.240;8.798;2023-02-15T15:18:02;33.65;;;23.60;;
31764;SDS011;18338;53.240;8.798;2023-02-15T15:20:51;29.35;;;22.13;;
31764;SDS011;18338;53.240;8.798;2023-02-15T15:25:52;34.05;;;24.92;;
31764;SDS011;18338;53.240;8.798;2023-02-15T15:36:39;37.67;;;24.58;;
31764;SDS011;18338;53.240;8.798;2023-02-15T15:44:55;35.08;;;23.85;;
31764;SDS011;18338;53.240;8.798;2023-02-15T15:47:41;37.33;;;24.80;;
31764;SDS011;18338;53.240;8.798;2023-02-15T15:50:21;33.33;;;23.30;;
31764;SDS011;18338;53.240;8.798;2023-02-15T15:52:57;33.70;;;23.60;;
31764;SDS011;18338;53.240;8.798;2023-02-15T15:55:27;36.15;;;25.23;;
31764;SDS011;18338;53.240;8.798;2023-02-15T15:57:57;38.58;;;24.88;;
31764;SDS011;18338;53.240;8.798;2023-02-15T16:03:16;34.35;;;23.98;;
31764;SDS011;18338;53.240;8.798;2023-02-15T16:05:46;39.25;;;25.20;;
31764;SDS011;18338;53.240;8.798;2023-02-15T16:08:26;38.67;;;26.48;;
31764;SDS011;18338;53.240;8.798;2023-02-15T16:10:52;37.63;;;24.60;;
31764;SDS011;18338;53.240;8.798;2023-02-15T16:13:19;38.13;;;23.98;;
31764;SDS011;18338;53.240;8.798;2023-02-15T16:15:47;36.83;;;24.48;;
31764;SDS011;18338;53.240;8.798;2023-02-15T16:18:20;37.58;;;23.65;;
31764;SDS011;18338;53.240;8.798;2023-02-15T16:20:55;37.88;;;23.63;;
31764;SDS011;18338;53.240;8.798;2023-02-15T16:29:15;37.00;;;24.55;;
31764;SDS011;18338;53.240;8.798;2023-02-15T16:31:56;33.97;;;22.67;;
31764;SDS011;18338;53.240;8.798;2023-02-15T16:34:27;36.60;;;24.20;;
31764;SDS011;18338;53.240;8.798;2023-02-15T16:39:45;38.08;;;22.23;;
31764;SDS011;18338;53.240;8.798;2023-02-15T16:42:14;32.40;;;22.15;;
31764;SDS011;18338;53.240;8.798;2023-02-15T16:44:48;35.22;;;22.60;;
31764;SDS011;18338;53.240;8.798;2023-02-15T16:47:35;32.17;;;22.42;;
31764;SDS011;18338;53.240;8.798;2023-02-15T16:50:07;33.05;;;20.80;;
31764;SDS011;18338;53.240;8.798;2023-02-15T16:52:47;35.65;;;23.00;;
31764;SDS011;18338;53.240;8.798;2023-02-15T16:55:20;34.60;;;22.58;;
31764;SDS011;18338;53.240;8.798;2023-02-15T16:57:50;37.40;;;22.35;;
31764;SDS011;18338;53.240;8.798;2023-02-15T17:00:22;35.70;;;22.63;;
31764;SDS011;18338;53.240;8.798;2023-02-15T17:03:00;32.70;;;22.60;;
31764;SDS011;18338;53.240;8.798;2023-02-15T17:05:31;38.50;;;22.58;;
31764;SDS011;18338;53.240;8.798;2023-02-15T17:10:40;34.10;;;22.85;;
31764;SDS011;18338;53.240;8.798;2023-02-15T17:15:40;40.60;;;24.75;;
31764;SDS011;18338;53.240;8.798;2023-02-15T17:18:17;39.60;;;25.02;;
31764;SDS011;18338;53.240;8.798;2023-02-15T17:20:47;37.58;;;23.48;;
31764;SDS011;18338;53.240;8.798;2023-02-15T17:23:32;36.30;;;23.45;;
31764;SDS011;18338;53.240;8.798;2023-02-15T17:26:10;34.53;;;22.40;;
31764;SDS011;18338;53.240;8.798;2023-02-15T17:28:48;40.17;;;23.92;;
31764;SDS011;18338;53.240;8.798;2023-02-15T17:31:17;37.80;;;22.98;;
31764;SDS011;18338;53.240;8.798;2023-02-15T17:33:45;37.45;;;22.58;;
31764;SDS011;18338;53.240;8.798;2023-02-15T17:36:16;36.58;;;23.02;;
31764;SDS011;18338;53.240;8.798;2023-02-15T17:41:25;36.15;;;24.73;;
31764;SDS011;18338;53.240;8.798;2023-02-15T17:43:56;37.03;;;23.58;;
31764;SDS011;18338;53.240;8.798;2023-02-15T17:46:23;34.50;;;22.50;;
31764;SDS011;18338;53.240;8.798;2023-02-15T17:48:51;36.55;;;22.13;;
31764;SDS011;18338;53.240;8.798;2023-02-15T17:51:21;32.90;;;22.42;;
31764;SDS011;18338;53.240;8.798;2023-02-15T17:53:48;39.35;;;24.63;;
31764;SDS011;18338;53.240;8.798;2023-02-15T17:56:34;33.78;;;23.38;;
31764;SDS011;18338;53.240;8.798;2023-02-15T17:59:03;38.20;;;24.80;;
31764;SDS011;18338;53.240;8.798;2023-02-15T18:01:34;34.38;;;23.15;;
31764;SDS011;18338;53.240;8.798;2023-02-15T18:04:22;37.15;;;23.60;;
31764;SDS011;18338;53.240;8.798;2023-02-15T18:07:16;32.50;;;22.48;;
31764;SDS011;18338;53.240;8.798;2023-02-15T18:10:17;35.92;;;22.85;;
31764;SDS011;18338;53.240;8.798;2023-02-15T18:13:03;32.67;;;21.92;;